Time;durP1;ratioP1;P1;durP2;ratioP2;P2;SDS_P1;SDS_P2;PMS_P1;PMS_P2;Temp;Humidity;BMP_temperature;BMP_pressure;BME280_temperature;BME280_humidity;BME280_pressure;Samples;Min_cycle;Max_cycle;Signal;HPM_P1;HPM_P2
2023/12/04 00:00:36;;;;;;;18.83;9.23;;;-4.50;1.00;;;;;;5290888;28;20034;-35
2023/12/04 00:03:07;;;;;;;18.40;9.57;;;-4.70;1.00;;;;;;5288332;28;20241;-34
2023/12/04 00:05:41;;;;;;;17.17;10.17;;;-4.40;1.00;;;;;;5293648;28;20038;-35
2023/12/04 00:08:13;;;;;;;19.17;8.77;;;-5.10;1.00;;;;;;5280336;28;20046;-34
2023/12/04 00:10:46;;;;;;;14.97;7.97;;;-5.20;1.00;;;;;;5288109;28;20028;-35
2023/12/04 00:13:20;;;;;;;14.73;8.73;;;-5.00;1.00;;;;;;5292670;28;20029;-35
2023/12/04 00:15:55;;;;;;;15.07;8.25;;;-4.90;1.00;;;;;;5289960;28;20250;-35
2023/12/04 00:18:32;;;;;;;17.00;8.90;;;-4.60;1.00;;;;;;5281854;28;20018;-35
2023/12/04 00:21:05;;;;;;;14.67;8.17;;;-4.50;1.00;;;;;;5290855;28;20038;-35
2023/12/04 00:23:39;;;;;;;11.98;7.72;;;-4.50;1.00;;;;;;5292252;28;20026;-35
2023/12/04 00:26:11;;;;;;;10.68;7.20;;;-4.40;1.00;;;;;;5291390;28;20031;-35
2023/12/04 00:28:42;;;;;;;12.70;6.50;;;-4.20;1.00;;;;;;5285443;28;20029;-34
2023/12/04 00:31:16;;;;;;;11.07;6.27;;;-4.30;1.00;;;;;;5289944;28;20035;-35
2023/12/04 00:33:50;;;;;;;11.52;6.47;;;-4.40;1.00;;;;;;5288190;27;20035;-34
2023/12/04 00:36:24;;;;;;;10.00;6.00;;;-4.50;1.00;;;;;;5285706;28;20063;-34
2023/12/04 00:38:55;;;;;;;9.15;5.95;;;-4.60;1.00;;;;;;5277397;28;20358;-35
2023/12/04 00:41:26;;;;;;;10.27;6.40;;;-4.70;1.00;;;;;;5290375;28;20084;-35
2023/12/04 00:43:58;;;;;;;10.20;5.97;;;-4.60;1.00;;;;;;5299976;28;20180;-35
2023/12/04 00:46:32;;;;;;;10.50;6.33;;;-4.50;1.00;;;;;;5290718;28;20245;-35
2023/12/04 00:49:03;;;;;;;8.80;5.60;;;-5.00;1.00;;;;;;5304910;28;20208;-35
2023/12/04 00:51:40;;;;;;;11.13;6.57;;;-5.50;1.00;;;;;;5312738;27;20030;-35
2023/12/04 00:54:13;;;;;;;8.73;5.33;;;-5.60;1.00;;;;;;5304765;28;20031;-35
2023/12/04 00:56:44;;;;;;;8.37;4.90;;;-5.40;1.00;;;;;;5291123;28;20031;-35
2023/12/04 00:59:17;;;;;;;8.37;5.53;;;-5.40;1.00;;;;;;5298313;28;20033;-35
2023/12/04 01:01:49;;;;;;;8.95;4.97;;;-5.30;1.00;;;;;;5285537;27;20034;-35
2023/12/04 01:04:23;;;;;;;8.80;4.90;;;-5.30;1.00;;;;;;5306358;28;20267;-35
2023/12/04 01:06:54;;;;;;;;;;;-5.20;1.00;;;;;;5310037;28;20335;-35
2023/12/04 01:09:25;;;;;;;8.30;4.57;;;-5.20;1.00;;;;;;5309361;28;20300;-35
2023/12/04 01:11:59;;;;;;;6.40;4.23;;;-5.10;1.00;;;;;;5308077;28;20247;-35
2023/12/04 01:14:31;;;;;;;7.20;4.50;;;-5.10;1.00;;;;;;5310304;28;20315;-35
2023/12/04 01:17:11;;;;;;;6.53;4.30;;;-5.30;1.00;;;;;;5306436;28;20184;-35
2023/12/04 01:19:42;;;;;;;9.23;5.17;;;-5.30;1.00;;;;;;5311206;28;20031;-35
2023/12/04 01:22:13;;;;;;;7.60;4.43;;;-5.00;1.00;;;;;;5310893;28;20030;-35
2023/12/04 01:24:47;;;;;;;7.30;4.80;;;-5.00;1.00;;;;;;5310959;28;20379;-35
2023/12/04 01:27:19;;;;;;;6.78;4.47;;;-4.70;1.00;;;;;;5305127;28;20030;-35
2023/12/04 01:29:58;;;;;;;6.87;4.77;;;-4.60;1.00;;;;;;5289776;28;20032;-35
2023/12/04 01:32:34;;;;;;;8.97;5.33;;;-4.60;1.00;;;;;;5286537;28;20024;-35
2023/12/04 01:35:10;;;;;;;9.70;5.10;;;-4.50;1.00;;;;;;5270577;28;20039;-35
2023/12/04 01:37:47;;;;;;;9.80;5.27;;;-4.80;1.00;;;;;;5254426;28;20107;-35
2023/12/04 01:40:18;;;;;;;6.87;4.43;;;-5.20;1.00;;;;;;5288889;28;20190;-35
2023/12/04 01:42:55;;;;;;;5.43;4.27;;;-5.70;1.00;;;;;;5244766;28;1265784;-35
2023/12/04 01:45:31;;;;;;;8.67;4.37;;;-6.10;1.00;;;;;;5267521;28;20035;-35
2023/12/04 01:48:04;;;;;;;9.37;5.13;;;-6.00;1.00;;;;;;5290176;28;20046;-35
2023/12/04 01:50:36;;;;;;;8.47;5.50;;;-5.60;1.00;;;;;;5290151;28;20031;-35
2023/12/04 01:53:07;;;;;;;6.10;3.70;;;-5.40;1.00;;;;;;5289690;28;20257;-35
2023/12/04 01:55:42;;;;;;;7.17;4.00;;;-5.40;1.00;;;;;;5289853;28;20325;-35
2023/12/04 01:58:13;;;;;;;7.53;4.43;;;-5.10;1.00;;;;;;5302241;27;20075;-35
2023/12/04 02:00:47;;;;;;;7.73;4.30;;;-4.90;1.00;;;;;;5307890;27;20243;-35
2023/12/04 02:03:21;;;;;;;7.43;4.27;;;-4.90;1.00;;;;;;5311877;27;20031;-35
2023/12/04 02:06:02;;;;;;;8.73;4.47;;;-5.10;1.00;;;;;;5311103;27;20027;-35
2023/12/04 02:08:35;;;;;;;7.80;3.67;;;-5.20;1.00;;;;;;5311096;27;20038;-35
2023/12/04 02:11:11;;;;;;;10.80;4.03;;;-5.60;1.00;;;;;;5311452;27;20047;-35
2023/12/04 02:13:43;;;;;;;10.90;5.00;;;-5.80;1.00;;;;;;5290822;27;20477;-35
2023/12/04 02:16:18;;;;;;;11.10;5.07;;;-5.40;1.00;;;;;;5272372;27;20228;-35
2023/12/04 02:18:54;;;;;;;7.63;4.27;;;-5.20;1.00;;;;;;5311194;27;20368;-35
2023/12/04 02:21:28;;;;;;;7.53;4.27;;;-5.20;1.00;;;;;;5311945;27;20108;-35
2023/12/04 02:24:05;;;;;;;9.43;5.03;;;-5.50;1.00;;;;;;5310761;27;20131;-35
2023/12/04 02:26:47;;;;;;;9.10;4.70;;;-5.50;1.00;;;;;;5311040;27;20031;-35
2023/12/04 02:29:52;;;;;;;6.60;3.93;;;-5.50;1.00;;;;;;5271928;28;20093;-35
2023/12/04 02:32:24;;;;;;;5.53;3.50;;;-5.40;1.00;;;;;;5286821;28;20042;-35
2023/12/04 02:34:57;;;;;;;4.97;3.40;;;-5.50;1.00;;;;;;5270853;28;20023;-35
2023/12/04 02:37:31;;;;;;;4.93;3.33;;;-5.90;1.00;;;;;;5288616;28;20058;-35
2023/12/04 02:40:02;;;;;;;;;;;-6.10;1.00;;;;;;5288075;28;20055;-35
2023/12/04 02:42:34;;;;;;;5.33;3.50;;;-6.10;1.00;;;;;;5289510;28;19960;-35
2023/12/04 02:45:09;;;;;;;5.57;3.73;;;-5.80;1.00;;;;;;5269237;28;20039;-35
2023/12/04 02:47:40;;;;;;;6.57;4.30;;;-5.70;1.00;;;;;;5288428;28;20181;-35
2023/12/04 02:50:23;;;;;;;6.80;4.33;;;-5.50;1.00;;;;;;5289359;28;20027;-35
2023/12/04 02:52:57;;;;;;;4.53;3.35;;;-5.30;1.00;;;;;;5297427;27;20034;-35
2023/12/04 02:55:31;;;;;;;5.27;3.20;;;-5.30;1.00;;;;;;5307396;27;20031;-35
2023/12/04 02:58:02;;;;;;;7.25;4.88;;;-5.40;1.00;;;;;;5295435;27;20050;-35
2023/12/04 03:00:36;;;;;;;7.63;4.20;;;-5.40;1.00;;;;;;5279317;28;20273;-35
2023/12/04 03:03:10;;;;;;;7.05;4.35;;;-5.20;1.00;;;;;;5288851;28;20088;-35
2023/12/04 03:05:41;;;;;;;5.73;3.63;;;-5.20;1.00;;;;;;5288997;28;20288;-35
2023/12/04 03:08:15;;;;;;;8.67;4.10;;;-5.30;1.00;;;;;;5289779;28;20239;-35
2023/12/04 03:10:46;;;;;;;5.22;3.45;;;-5.30;1.00;;;;;;5288311;28;20034;-35
2023/12/04 03:13:18;;;;;;;8.97;4.37;;;-5.40;1.00;;;;;;5287129;28;20046;-35
2023/12/04 03:15:52;;;;;;;5.80;3.30;;;-5.50;1.00;;;;;;5286092;28;20027;-35
2023/12/04 03:18:25;;;;;;;7.07;4.07;;;-5.60;1.00;;;;;;5287204;28;20043;-35
2023/12/04 03:20:57;;;;;;;6.80;3.60;;;-5.70;1.00;;;;;;5270168;28;20170;-35
2023/12/04 03:23:28;;;;;;;4.90;3.53;;;-6.00;1.00;;;;;;5289191;28;20095;-35
2023/12/04 03:26:02;;;;;;;5.90;3.77;;;-5.80;1.00;;;;;;5289766;28;20053;-35
2023/12/04 03:28:36;;;;;;;4.35;3.00;;;-5.60;1.00;;;;;;5280863;27;20292;-35
2023/12/04 03:31:07;;;;;;;;;;;-5.80;1.00;;;;;;5306774;27;20039;-34
2023/12/04 03:33:38;;;;;;;4.03;2.60;;;-6.10;1.00;;;;;;5295251;27;19908;-35
2023/12/04 03:36:10;;;;;;;4.10;3.40;;;-6.20;1.00;;;;;;5269903;28;20046;-34
2023/12/04 03:38:43;;;;;;;5.60;3.10;;;-6.60;1.00;;;;;;5310060;28;20023;-34
2023/12/04 03:41:15;;;;;;;3.92;3.08;;;-6.60;1.00;;;;;;5309730;28;20031;-34
2023/12/04 03:43:49;;;;;;;4.87;3.00;;;-6.60;1.00;;;;;;5291486;28;20220;-34
2023/12/04 03:46:20;;;;;;;5.75;3.40;;;-6.30;1.00;;;;;;5298688;28;20043;-34
2023/12/04 03:48:52;;;;;;;8.30;4.37;;;-6.30;1.00;;;;;;5267834;28;20069;-34
2023/12/04 03:51:23;;;;;;;6.70;3.73;;;-6.10;1.00;;;;;;5273693;28;20236;-34
2023/12/04 03:53:54;;;;;;;8.07;4.17;;;-5.80;1.00;;;;;;5303850;28;20184;-34
2023/12/04 03:56:30;;;;;;;7.47;3.83;;;-5.60;1.00;;;;;;5292926;28;20058;-34
2023/12/04 03:59:03;;;;;;;10.60;4.60;;;-5.60;1.00;;;;;;5289545;28;20097;-34
2023/12/04 04:01:45;;;;;;;5.80;3.90;;;-5.70;1.00;;;;;;5288391;28;20023;-34
2023/12/04 04:04:17;;;;;;;7.43;4.57;;;-6.30;1.00;;;;;;5309704;28;20091;-34
2023/12/04 04:06:51;;;;;;;7.77;4.33;;;-6.50;1.00;;;;;;5310254;28;20058;-34
2023/12/04 04:09:28;;;;;;;9.00;4.70;;;-6.30;1.00;;;;;;5290620;28;20035;-34
2023/12/04 04:11:59;;;;;;;7.83;4.50;;;-6.30;1.00;;;;;;5291028;28;20031;-34
2023/12/04 04:14:32;;;;;;;7.17;4.43;;;-6.40;1.00;;;;;;5290536;28;20023;-34
2023/12/04 04:17:05;;;;;;;7.50;3.95;;;-6.50;1.00;;;;;;5287922;28;20032;-34
2023/12/04 04:19:38;;;;;;;7.10;4.37;;;-6.00;1.00;;;;;;5290762;28;20042;-34
2023/12/04 04:22:10;;;;;;;11.75;5.50;;;-6.00;1.00;;;;;;5291644;28;20023;-34
2023/12/04 04:24:47;;;;;;;10.60;5.47;;;-6.00;1.00;;;;;;5289927;28;20047;-34
2023/12/04 04:27:18;;;;;;;7.37;4.60;;;-6.20;1.00;;;;;;5261798;28;20029;-34
2023/12/04 04:29:49;;;;;;;10.13;5.03;;;-6.40;1.00;;;;;;5312133;28;20049;-34
2023/12/04 04:32:23;;;;;;;8.23;4.63;;;-6.60;1.00;;;;;;5304050;28;20027;-34
2023/12/04 04:34:54;;;;;;;7.28;4.30;;;-6.60;1.00;;;;;;5310523;28;20062;-34
2023/12/04 04:37:25;;;;;;;5.77;3.87;;;-6.60;1.00;;;;;;5311980;27;20079;-34
2023/12/04 04:39:59;;;;;;;14.30;8.27;;;-6.60;1.00;;;;;;5315966;27;20042;-34
2023/12/04 04:42:30;;;;;;;15.20;9.50;;;-6.50;1.00;;;;;;5314591;27;20422;-33
2023/12/04 04:45:01;;;;;;;17.00;8.43;;;-6.20;1.00;;;;;;5297368;27;20035;-34
2023/12/04 04:47:35;;;;;;;9.73;6.13;;;-6.00;1.00;;;;;;5293670;27;20041;-34
2023/12/04 04:50:07;;;;;;;9.23;6.43;;;-6.20;1.00;;;;;;5315892;27;20042;-34
2023/12/04 04:52:43;;;;;;;9.90;5.93;;;-6.20;1.00;;;;;;5314098;27;20042;-33
2023/12/04 04:55:16;;;;;;;10.77;5.67;;;-6.20;1.00;;;;;;5313877;27;20025;-34
2023/12/04 04:57:50;;;;;;;11.00;5.93;;;-6.00;1.00;;;;;;5303037;27;20107;-33
2023/12/04 05:00:21;;;;;;;10.65;5.97;;;-6.00;1.00;;;;;;5288689;28;20474;-33
2023/12/04 05:02:52;;;;;;;11.30;6.57;;;-5.90;1.00;;;;;;5294123;28;20033;-33
2023/12/04 05:05:26;;;;;;;8.53;5.20;;;-5.90;1.00;;;;;;5292904;28;20109;-33
2023/12/04 05:07:57;;;;;;;9.65;6.13;;;-6.00;1.00;;;;;;5293030;28;20020;-34
2023/12/04 05:10:31;;;;;;;10.53;6.13;;;-6.30;1.00;;;;;;5293506;28;20031;-34
2023/12/04 05:13:05;;;;;;;;;;;-6.40;1.00;;;;;;5275566;28;20024;-34
2023/12/04 05:15:38;;;;;;;9.13;5.70;;;-6.50;1.00;;;;;;5254605;28;19907;-34
2023/12/04 05:18:09;;;;;;;;;;;-6.30;1.00;;;;;;5293408;28;20035;-34
2023/12/04 05:20:41;;;;;;;10.47;6.30;;;-6.00;1.00;;;;;;5292643;28;19914;-33
2023/12/04 05:23:12;;;;;;;11.20;6.33;;;-5.90;1.00;;;;;;5308300;27;20215;-34
2023/12/04 05:25:43;;;;;;;10.33;6.10;;;-5.80;1.00;;;;;;5293085;28;20036;-34
2023/12/04 05:28:14;;;;;;;11.97;6.17;;;-5.90;1.00;;;;;;5281166;28;20586;-34
2023/12/04 05:30:48;;;;;;;12.07;5.37;;;-5.90;1.00;;;;;;5276414;27;20039;-33
2023/12/04 05:33:24;;;;;;;;;;;-5.80;1.00;;;;;;5297643;27;20328;-34
2023/12/04 05:35:57;;;;;;;14.10;6.87;;;-5.80;1.00;;;;;;5292151;28;20161;-33
2023/12/04 05:38:30;;;;;;;14.85;6.55;;;-5.80;1.00;;;;;;5292086;28;20049;-33
2023/12/04 05:41:02;;;;;;;11.30;6.47;;;-5.80;1.00;;;;;;5292528;28;20209;-34
2023/12/04 05:43:34;;;;;;;10.77;5.80;;;-6.20;1.00;;;;;;5293028;28;20059;-33
2023/12/04 05:46:07;;;;;;;12.43;6.90;;;-6.90;99.90;;;;;;5289497;28;20507;-33
2023/12/04 05:48:41;;;;;;;13.80;6.70;;;-6.90;1.00;;;;;;5289778;28;20600;-34
2023/12/04 05:51:13;;;;;;;14.10;7.87;;;-7.00;1.00;;;;;;5291043;28;20058;-34
2023/12/04 05:53:48;;;;;;;9.20;6.43;;;-6.70;1.00;;;;;;5273749;28;20035;-33
2023/12/04 05:56:22;;;;;;;12.43;6.97;;;-6.70;1.00;;;;;;5291536;28;20041;-33
2023/12/04 05:58:56;;;;;;;12.87;6.97;;;-6.50;1.00;;;;;;5289755;28;20040;-34
2023/12/04 06:01:27;;;;;;;15.87;8.10;;;-6.50;1.00;;;;;;5291789;27;20033;-33
2023/12/04 06:04:01;;;;;;;14.20;7.30;;;-6.40;1.00;;;;;;5287038;27;20227;-33
2023/12/04 06:06:32;;;;;;;16.98;8.00;;;-6.40;1.00;;;;;;5295618;27;20110;-34
2023/12/04 06:09:06;;;;;;;13.60;6.87;;;-6.40;1.00;;;;;;5303699;27;20097;-33
2023/12/04 06:11:43;;;;;;;14.33;8.40;;;-6.20;1.00;;;;;;5308528;27;20050;-33
2023/12/04 06:14:16;;;;;;;14.47;9.17;;;-6.30;1.00;;;;;;5296351;27;20038;-33
2023/12/04 06:16:48;;;;;;;16.48;8.93;;;-6.40;1.00;;;;;;5305815;27;20037;-33
2023/12/04 06:19:19;;;;;;;18.63;9.00;;;-6.60;1.00;;;;;;5288668;27;20035;-33
2023/12/04 06:21:55;;;;;;;16.27;8.83;;;-6.60;1.00;;;;;;5307690;27;20037;-34
2023/12/04 06:24:26;;;;;;;15.50;8.37;;;-6.50;1.00;;;;;;5305960;27;20015;-33
2023/12/04 06:26:58;;;;;;;12.73;7.30;;;-6.40;1.00;;;;;;5298479;27;20057;-33
2023/12/04 06:29:35;;;;;;;11.50;7.03;;;-6.40;1.00;;;;;;5302323;27;20026;-34
2023/12/04 06:32:10;;;;;;;14.03;7.83;;;-6.60;1.00;;;;;;5299939;27;20356;-34
2023/12/04 06:34:46;;;;;;;13.83;7.73;;;-6.80;1.00;;;;;;5302851;27;20034;-34
2023/12/04 06:37:18;;;;;;;20.20;9.13;;;-6.70;1.00;;;;;;5299552;27;20571;-33
2023/12/04 06:39:52;;;;;;;15.60;8.97;;;-6.40;1.00;;;;;;5303347;27;20204;-33
2023/12/04 06:42:27;;;;;;;10.93;7.40;;;-6.30;1.00;;;;;;5302434;27;20023;-33
2023/12/04 06:45:02;;;;;;;15.67;9.13;;;-6.10;1.00;;;;;;5270907;27;20065;-33
2023/12/04 06:47:35;;;;;;;17.23;10.23;;;-5.90;1.00;;;;;;5279248;27;20031;-33
2023/12/04 06:50:06;;;;;;;19.27;10.57;;;-5.70;1.00;;;;;;5299967;27;20035;-33
2023/12/04 06:52:38;;;;;;;18.50;11.40;;;-5.70;1.00;;;;;;5300177;27;20036;-33
2023/12/04 06:55:09;;;;;;;19.47;10.60;;;-5.60;1.00;;;;;;5305583;27;20384;-33
2023/12/04 06:57:40;;;;;;;15.27;8.73;;;-5.60;1.00;;;;;;5274415;27;20369;-34
2023/12/04 07:00:14;;;;;;;19.30;9.37;;;-5.50;1.00;;;;;;5305686;27;20033;-33
2023/12/04 07:02:45;;;;;;;16.63;10.18;;;-5.40;1.00;;;;;;5289375;27;20031;-33
2023/12/04 07:05:17;;;;;;;20.40;10.23;;;-5.50;1.00;;;;;;5305563;27;20027;-33
2023/12/04 07:07:53;;;;;;;19.03;9.80;;;-5.50;1.00;;;;;;5295757;27;20044;-34
2023/12/04 07:10:25;;;;;;;19.93;10.30;;;-5.60;1.00;;;;;;5305193;27;20035;-34
2023/12/04 07:12:58;;;;;;;24.53;11.43;;;-5.30;1.00;;;;;;5281061;27;20039;-33
2023/12/04 07:15:30;;;;;;;19.25;10.93;;;-5.10;1.00;;;;;;5307567;27;20041;-33
2023/12/04 07:18:01;;;;;;;21.87;12.17;;;-4.90;1.00;;;;;;5299165;27;20049;-34
2023/12/04 07:20:32;;;;;;;24.30;12.00;;;-4.60;1.00;;;;;;5309784;27;20015;-33
2023/12/04 07:23:07;;;;;;;23.73;11.93;;;-4.50;1.00;;;;;;5286098;27;20044;-33
2023/12/04 07:25:38;;;;;;;24.23;11.83;;;-4.50;1.00;;;;;;5302569;27;20181;-33
2023/12/04 07:28:12;;;;;;;25.13;12.63;;;-4.30;1.00;;;;;;5292078;27;20043;-33
2023/12/04 07:30:46;;;;;;;26.17;11.55;;;-4.30;1.00;;;;;;5302576;27;20026;-33
2023/12/04 07:33:20;;;;;;;;;;;-4.50;1.00;;;;;;5297820;27;20084;-33
2023/12/04 07:35:54;;;;;;;21.05;11.65;;;-4.50;1.00;;;;;;5291324;27;19900;-33
2023/12/04 07:38:30;;;;;;;19.70;9.95;;;-4.40;1.00;;;;;;5283118;27;20102;-34
2023/12/04 07:41:01;;;;;;;19.03;9.40;;;-4.30;1.00;;;;;;5304793;28;20183;-32
2023/12/04 07:43:35;;;;;;;16.37;10.23;;;-4.30;99.90;;;;;;5293686;28;20043;-32
2023/12/04 07:46:08;;;;;;;16.30;9.82;;;-4.30;99.90;;;;;;5257784;28;20178;-32
2023/12/04 07:48:43;;;;;;;17.33;9.65;;;-4.50;1.00;;;;;;5285162;28;20039;-31
2023/12/04 07:51:16;;;;;;;18.90;9.50;;;-4.50;1.00;;;;;;5304503;28;20457;-31
2023/12/04 07:53:49;;;;;;;17.43;9.60;;;-4.40;1.00;;;;;;5294420;28;20036;-31
2023/12/04 07:56:20;;;;;;;17.20;10.77;;;-4.20;1.00;;;;;;5296883;28;20024;-31
2023/12/04 07:58:54;;;;;;;14.70;7.80;;;-4.10;1.00;;;;;;5295821;28;20054;-32
2023/12/04 08:01:26;;;;;;;;;;;-3.80;1.00;;;;;;5285251;28;20027;-33
2023/12/04 08:03:57;;;;;;;18.03;9.43;;;-3.50;1.00;;;;;;5295944;28;20198;-33
2023/12/04 08:06:32;;;;;;;17.97;9.20;;;-3.50;1.00;;;;;;5310588;28;20522;-33
2023/12/04 08:09:05;;;;;;;14.10;8.27;;;-3.30;1.00;;;;;;5272444;28;20239;-33
2023/12/04 08:11:37;;;;;;;14.18;7.53;;;-3.20;1.00;;;;;;5301260;27;20404;-32
2023/12/04 08:14:10;;;;;;;11.27;7.78;;;-3.00;1.00;;;;;;5289585;27;20056;-32
2023/12/04 08:16:44;;;;;;;10.13;6.77;;;-3.00;1.00;;;;;;5281237;28;20038;-32
2023/12/04 08:19:15;;;;;;;;;;;-2.90;1.00;;;;;;5281363;28;20032;-31
2023/12/04 08:21:47;;;;;;;19.43;8.60;;;-2.90;99.90;;;;;;5301992;27;19914;-31
2023/12/04 08:24:18;;;;;;;13.23;7.00;;;-3.20;1.00;;;;;;5283224;28;20043;-31
2023/12/04 08:26:50;;;;;;;13.97;6.60;;;-3.60;1.00;;;;;;5294893;27;20019;-31
2023/12/04 08:29:21;;;;;;;11.73;6.37;;;-3.60;1.00;;;;;;5297865;27;20373;-31
2023/12/04 08:31:55;;;;;;;16.67;6.80;;;-3.40;99.90;;;;;;5300187;27;20040;-30
2023/12/04 08:34:29;;;;;;;8.32;5.72;;;-3.20;1.00;;;;;;5300679;27;20046;-30
2023/12/04 08:37:00;;;;;;;10.33;6.37;;;-2.80;1.00;;;;;;5307753;27;20031;-30
2023/12/04 08:39:32;;;;;;;8.83;5.97;;;-2.80;99.90;;;;;;5303892;27;20054;-31
2023/12/04 08:42:06;;;;;;;9.07;5.53;;;-2.80;1.00;;;;;;5293886;27;20069;-30
2023/12/04 08:44:37;;;;;;;7.80;5.63;;;-3.00;1.00;;;;;;5301487;27;20050;-30
2023/12/04 08:47:12;;;;;;;11.73;6.07;;;-3.30;1.00;;;;;;5288654;27;20065;-31
2023/12/04 08:49:49;;;;;;;11.23;6.20;;;-3.50;99.90;;;;;;5302435;27;20291;-31
2023/12/04 08:52:20;;;;;;;8.90;6.33;;;-3.30;1.00;;;;;;5306929;27;20228;-32
2023/12/04 08:54:53;;;;;;;10.17;6.87;;;-3.10;1.00;;;;;;5280442;27;20258;-32
2023/12/04 08:57:30;;;;;;;12.87;6.97;;;-2.80;1.00;;;;;;5308408;27;20043;-32
2023/12/04 09:00:05;;;;;;;16.20;7.20;;;-2.50;5.90;;;;;;5285022;27;20053;-33
2023/12/04 09:02:36;;;;;;;8.63;6.00;;;-2.20;12.90;;;;;;5306594;27;20035;-32
2023/12/04 09:05:10;;;;;;;12.47;6.87;;;-2.10;1.00;;;;;;5303825;27;20054;-33
2023/12/04 09:07:41;;;;;;;12.77;6.85;;;-1.90;1.00;;;;;;5312119;27;20041;-33
2023/12/04 09:10:15;;;;;;;11.93;6.23;;;-2.00;1.00;;;;;;5303056;27;20047;-33
2023/12/04 09:12:48;;;;;;;7.65;5.00;;;-1.80;95.20;;;;;;5301815;27;20032;-33
2023/12/04 09:15:19;;;;;;;9.45;5.90;;;-1.80;1.00;;;;;;5284496;27;20398;-33
2023/12/04 09:17:51;;;;;;;10.75;6.95;;;-1.70;99.90;;;;;;5311722;27;20037;-33
2023/12/04 09:20:25;;;;;;;11.27;6.47;;;-1.80;1.00;;;;;;5301543;27;20051;-33
2023/12/04 09:22:56;;;;;;;8.55;5.63;;;-2.50;13.00;;;;;;5307714;27;20328;-34
2023/12/04 09:25:27;;;;;;;14.93;7.67;;;-2.30;99.90;;;;;;5301596;27;20050;-34
2023/12/04 09:27:59;;;;;;;12.43;6.05;;;-2.10;1.00;;;;;;5289802;27;20028;-34
2023/12/04 09:30:32;;;;;;;11.30;6.73;;;-2.40;39.90;;;;;;5298841;27;20027;-35
2023/12/04 09:33:03;;;;;;;9.02;6.40;;;-2.30;99.90;;;;;;5302536;27;20267;-35
2023/12/04 09:35:43;;;;;;;10.60;6.37;;;-2.00;99.90;;;;;;5298576;27;20224;-35
2023/12/04 09:38:17;;;;;;;10.23;6.90;;;-1.50;99.90;;;;;;5303163;27;20031;-36
2023/12/04 09:40:49;;;;;;;9.57;6.65;;;-1.20;99.90;;;;;;5297262;27;20031;-35
2023/12/04 09:43:23;;;;;;;12.55;7.95;;;-0.60;99.90;;;;;;5288563;27;20034;-35
2023/12/04 09:46:01;;;;;;;12.20;7.43;;;-0.50;25.80;;;;;;5258712;28;20028;-36
2023/12/04 09:48:33;;;;;;;10.60;6.70;;;-0.70;97.50;;;;;;5290038;28;20020;-36
2023/12/04 09:51:05;;;;;;;12.48;6.32;;;-0.40;29.40;;;;;;5278977;28;20239;-35
2023/12/04 09:53:41;;;;;;;10.88;6.57;;;0.10;99.90;;;;;;5273702;28;20028;-35
2023/12/04 09:56:16;;;;;;;15.90;6.20;;;0.10;1.00;;;;;;5280799;28;20399;-35
2023/12/04 09:58:52;;;;;;;10.60;7.13;;;0.30;99.90;;;;;;5273197;27;20034;-36
2023/12/04 10:01:24;;;;;;;14.57;7.10;;;0.60;99.90;;;;;;5262252;27;20350;-35
2023/12/04 10:04:00;;;;;;;11.70;6.25;;;0.70;99.90;;;;;;5291894;27;20027;-36
2023/12/04 10:06:36;;;;;;;10.38;6.65;;;1.30;99.90;;;;;;5279919;27;20327;-35
2023/12/04 10:09:11;;;;;;;11.68;7.43;;;1.70;99.90;;;;;;5302352;27;20310;-35
2023/12/04 10:11:45;;;;;;;9.93;6.57;;;2.10;99.90;;;;;;5282469;27;20030;-35
2023/12/04 10:14:20;;;;;;;;;;;2.40;1.00;;;;;;5305634;27;20041;-35
2023/12/04 10:16:53;;;;;;;10.82;7.15;;;2.30;99.90;;;;;;5276768;27;19915;-35
2023/12/04 10:19:26;;;;;;;14.95;6.47;;;2.40;99.90;;;;;;5304365;27;20328;-35
2023/12/04 10:22:00;;;;;;;10.73;6.70;;;2.40;99.90;;;;;;5280473;28;20019;-34
2023/12/04 10:24:38;;;;;;;11.35;6.72;;;2.40;99.90;;;;;;5292485;27;20030;-34
2023/12/04 10:27:12;;;;;;;12.18;6.50;;;2.00;99.90;;;;;;5296837;27;20031;-35
2023/12/04 10:29:56;;;;;;;11.40;7.20;;;2.10;99.90;;;;;;5290205;27;20035;-34
2023/12/04 10:32:29;;;;;;;12.05;7.35;;;2.10;99.90;;;;;;5279162;27;20047;-35
2023/12/04 10:35:01;;;;;;;13.95;6.97;;;2.10;99.90;;;;;;5302444;27;20232;-35
2023/12/04 10:37:35;;;;;;;9.38;6.60;;;2.40;1.00;;;;;;5281610;27;20243;-35
2023/12/04 10:40:10;;;;;;;;;;;1.30;5.10;;;;;;5289241;28;20034;-35
2023/12/04 10:42:41;;;;;;;11.70;7.35;;;1.30;1.00;;;;;;5283093;28;19916;-34
2023/12/04 10:45:15;;;;;;;13.70;7.07;;;1.90;99.90;;;;;;5286345;27;20028;-35
2023/12/04 10:47:47;;;;;;;;;;;2.30;1.00;;;;;;5259252;28;20023;-35
2023/12/04 10:50:20;;;;;;;12.00;6.15;;;2.70;40.20;;;;;;5261458;28;19912;-35
2023/12/04 10:52:53;;;;;;;14.45;8.02;;;2.70;99.90;;;;;;5260372;28;20054;-35
2023/12/04 10:55:25;;;;;;;11.77;7.60;;;2.90;1.00;;;;;;5280526;28;20040;-35
2023/12/04 10:57:59;;;;;;;11.20;6.70;;;2.80;1.00;;;;;;5263567;28;20036;-35
2023/12/04 11:00:35;;;;;;;12.57;7.63;;;2.70;1.00;;;;;;5259038;28;20261;-35
2023/12/04 11:03:13;;;;;;;9.60;6.40;;;3.30;1.00;;;;;;5258242;28;20032;-34
2023/12/04 11:05:46;;;;;;;9.48;5.97;;;3.60;1.00;;;;;;5281990;28;20020;-35
2023/12/04 11:08:20;;;;;;;8.65;5.95;;;4.10;1.00;;;;;;5260891;28;20314;-35
2023/12/04 11:11:07;;;;;;;9.63;6.57;;;4.90;1.00;;;;;;5251079;28;20036;-35
2023/12/04 11:13:44;;;;;;;11.35;6.60;;;4.80;1.00;;;;;;5249662;28;20227;-35
2023/12/04 11:16:42;;;;;;;12.50;6.85;;;5.00;1.00;;;;;;5275182;28;20050;-35
2023/12/04 11:19:37;;;;;;;12.27;6.93;;;5.50;1.00;;;;;;5264698;28;20097;-35
2023/12/04 11:22:09;;;;;;;10.30;6.50;;;5.50;1.00;;;;;;5266576;28;20358;-35
2023/12/04 11:24:41;;;;;;;11.80;6.75;;;5.70;99.90;;;;;;5258577;28;20059;-35
2023/12/04 11:27:12;;;;;;;8.40;6.00;;;5.40;99.90;;;;;;5267843;28;20040;-36
2023/12/04 11:29:46;;;;;;;10.00;5.97;;;4.90;1.00;;;;;;5267429;28;20336;-36
2023/12/04 11:32:18;;;;;;;10.43;7.00;;;4.30;99.90;;;;;;5267678;28;20028;-36
2023/12/04 11:34:56;;;;;;;8.95;6.15;;;3.80;99.90;;;;;;5267353;28;20053;-36
2023/12/04 11:37:27;;;;;;;11.25;6.80;;;3.80;99.90;;;;;;5258306;28;20032;-38
2023/12/04 11:40:07;;;;;;;9.45;6.68;;;3.70;99.90;;;;;;5256514;28;20039;-38
2023/12/04 11:42:39;;;;;;;11.38;6.97;;;3.30;32.30;;;;;;5271041;28;20028;-39
2023/12/04 11:45:25;;;;;;;10.27;6.57;;;2.80;78.00;;;;;;5273524;28;20272;-39
2023/12/04 11:47:59;;;;;;;11.85;6.85;;;2.50;93.90;;;;;;5276774;28;20024;-39
2023/12/04 11:50:32;;;;;;;13.18;7.03;;;2.10;1.00;;;;;;5273638;28;20039;-39
2023/12/04 11:53:04;;;;;;;9.80;6.47;;;2.10;1.00;;;;;;5250012;28;20032;-39
2023/12/04 11:55:43;;;;;;;11.95;7.05;;;2.70;1.00;;;;;;5256806;28;20081;-39
2023/12/04 11:58:16;;;;;;;11.57;7.05;;;3.00;51.00;;;;;;5274143;28;20228;-39
2023/12/04 12:00:52;;;;;;;12.77;7.05;;;3.40;99.90;;;;;;5256492;28;20036;-39
2023/12/04 12:03:28;;;;;;;10.88;7.18;;;3.20;4.80;;;;;;5288150;28;20034;-39
2023/12/04 12:06:05;;;;;;;11.65;6.68;;;3.30;1.00;;;;;;5276217;28;20242;-39
2023/12/04 12:08:36;;;;;;;12.50;6.97;;;3.50;1.00;;;;;;5291621;28;20216;-39
2023/12/04 12:11:10;;;;;;;10.95;6.88;;;3.30;1.00;;;;;;5268512;28;20036;-39
2023/12/04 12:13:41;;;;;;;;;;;2.90;1.00;;;;;;5272184;28;20024;-40
2023/12/04 12:16:12;;;;;;;12.55;7.28;;;2.80;1.00;;;;;;5243629;28;19943;-40
2023/12/04 12:18:43;;;;;;;9.70;6.47;;;2.70;1.00;;;;;;5267065;28;20028;-40
2023/12/04 12:21:15;;;;;;;9.70;6.47;;;2.60;1.00;;;;;;5249247;28;20048;-40
2023/12/04 12:23:50;;;;;;;11.57;7.03;;;1.90;1.00;;;;;;5251743;28;20020;-40
2023/12/04 12:26:24;;;;;;;11.95;6.90;;;1.60;1.00;;;;;;5243488;28;20052;-41
2023/12/04 12:28:57;;;;;;;13.30;7.85;;;1.20;1.00;;;;;;5250743;28;20214;-41
2023/12/04 12:31:29;;;;;;;10.55;6.70;;;1.00;1.00;;;;;;5252494;28;20078;-41
2023/12/04 12:34:02;;;;;;;12.18;7.00;;;1.10;1.00;;;;;;5269459;28;20036;-43
2023/12/04 12:36:37;;;;;;;15.75;7.15;;;1.30;1.00;;;;;;5263869;28;20052;-40
2023/12/04 12:39:12;;;;;;;11.82;6.45;;;1.60;1.00;;;;;;5261292;28;20036;-40
2023/12/04 12:41:52;;;;;;;11.13;6.25;;;1.80;1.00;;;;;;5270203;28;20047;-40
2023/12/04 12:44:25;;;;;;;11.32;6.63;;;2.00;1.00;;;;;;5250332;28;20040;-40
2023/12/04 12:46:57;;;;;;;11.20;6.78;;;2.20;1.00;;;;;;5269576;28;20043;-40
2023/12/04 12:49:29;;;;;;;8.77;6.00;;;2.20;1.00;;;;;;5275459;28;20036;-40
2023/12/04 12:52:01;;;;;;;6.05;3.70;;;2.10;1.00;;;;;;5247662;28;20047;-40
2023/12/04 12:54:35;;;;;;;3.17;2.80;;;1.90;1.00;;;;;;5276774;28;20028;-40
2023/12/04 12:57:07;;;;;;;5.03;2.85;;;1.50;1.00;;;;;;5269356;28;20256;-40
2023/12/04 12:59:41;;;;;;;3.70;2.67;;;1.30;1.00;;;;;;5275143;28;20042;-42
2023/12/04 13:02:19;;;;;;;6.95;3.40;;;1.10;1.00;;;;;;5232001;28;20055;-42
2023/12/04 13:04:53;;;;;;;4.45;3.17;;;1.00;1.00;;;;;;5259005;28;20028;-39
2023/12/04 13:07:26;;;;;;;4.03;3.30;;;0.90;1.00;;;;;;5250790;28;20047;-38
2023/12/04 13:09:57;;;;;;;5.47;3.43;;;0.80;1.00;;;;;;5270570;28;20023;-37
2023/12/04 13:12:34;;;;;;;4.53;3.20;;;0.80;1.00;;;;;;5262580;28;20648;-37
2023/12/04 13:15:08;;;;;;;7.15;3.95;;;0.80;1.00;;;;;;5269197;28;20032;-37
2023/12/04 13:17:39;;;;;;;3.40;2.90;;;0.70;1.00;;;;;;5279024;28;20048;-37
2023/12/04 13:20:16;;;;;;;7.10;3.28;;;0.70;1.00;;;;;;5291707;28;20030;-36
2023/12/04 13:22:53;;;;;;;5.38;3.60;;;0.70;1.00;;;;;;5293066;27;20047;-36
2023/12/04 13:25:24;;;;;;;5.43;3.45;;;0.70;1.00;;;;;;5295817;27;20027;-36
2023/12/04 13:27:56;;;;;;;5.28;3.13;;;0.60;1.00;;;;;;5273811;27;20036;-39